JAG75 KEWR-KMKE
Flight info
| Callsign | JAG75 |
|---|---|
| Flight time | 1h 56m |
| Altitude | 36000 |
| Route | NEWEL J60 DJB CRL PEGEE GETCH LYSTR SUDDS |
| Aircraft | A320/M-SDE3FGHIRWY/LB1 |
Departure
| Time | 2026-04-26 14:49 |
|---|---|
| Airport | Newark Liberty International Airport (KEWR) |
Arrival
| Time | 2026-04-26 16:45 |
|---|---|
| Airport | General Mitchell International Airport (KMKE) |
| Time | Latitude | Longitude | Altitude | Speed | Heading |
|---|---|---|---|---|---|
| 2026-04-26 14:23 | 40.68725 | -74.17706 | 20 ft | 0 kts | 1° |
| 2026-04-26 14:38 | 40.68714 | -74.17706 | 22 ft | 2 kts | 1° |
| 2026-04-26 14:38 | 40.68697 | -74.17707 | 22 ft | 2 kts | 1° |
| 2026-04-26 14:38 | 40.68685 | -74.17707 | 22 ft | 2 kts | 1° |
| 2026-04-26 14:39 | 40.68668 | -74.17707 | 22 ft | 2 kts | 21° |
| 2026-04-26 14:39 | 40.68656 | -74.17721 | 20 ft | 2 kts | 92° |
| 2026-04-26 14:39 | 40.68656 | -74.17722 | 20 ft | 0 kts | 92° |
| 2026-04-26 14:42 | 40.68655 | -74.17715 | 20 ft | 2 kts | 99° |
| 2026-04-26 14:42 | 40.68645 | -74.17682 | 22 ft | 5 kts | 115° |
| 2026-04-26 14:42 | 40.68625 | -74.17627 | 20 ft | 8 kts | 115° |
| 2026-04-26 14:43 | 40.68585 | -74.17569 | 20 ft | 10 kts | 166° |
| 2026-04-26 14:43 | 40.68520 | -74.17601 | 20 ft | 12 kts | 206° |
| 2026-04-26 14:43 | 40.68438 | -74.17654 | 20 ft | 14 kts | 206° |
| 2026-04-26 14:43 | 40.68340 | -74.17714 | 20 ft | 17 kts | 205° |
| 2026-04-26 14:44 | 40.68228 | -74.17786 | 20 ft | 19 kts | 205° |
| 2026-04-26 14:44 | 40.68105 | -74.17865 | 20 ft | 21 kts | 206° |
| 2026-04-26 14:44 | 40.67976 | -74.17947 | 21 ft | 10 kts | 206° |
| 2026-04-26 14:44 | 40.67915 | -74.17986 | 20 ft | 8 kts | 206° |
| 2026-04-26 14:45 | 40.67879 | -74.18009 | 20 ft | 5 kts | 206° |
| 2026-04-26 14:45 | 40.67852 | -74.18003 | 20 ft | 7 kts | 149° |
| 2026-04-26 14:45 | 40.67825 | -74.17951 | 22 ft | 1 kts | 121° |
| 2026-04-26 14:45 | 40.67813 | -74.17941 | 20 ft | 3 kts | 158° |
| 2026-04-26 14:46 | 40.67781 | -74.17946 | 20 ft | 6 kts | 204° |
| 2026-04-26 14:46 | 40.67736 | -74.17982 | 20 ft | 9 kts | 210° |
| 2026-04-26 14:46 | 40.67674 | -74.18021 | 20 ft | 11 kts | 202° |
| 2026-04-26 14:46 | 40.67606 | -74.18043 | 20 ft | 2 kts | 160° |
| 2026-04-26 14:47 | 40.67599 | -74.18038 | 20 ft | 2 kts | 147° |
| 2026-04-26 14:47 | 40.67582 | -74.18013 | 20 ft | 5 kts | 130° |
| 2026-04-26 14:47 | 40.67560 | -74.17966 | 21 ft | 7 kts | 107° |
| 2026-04-26 14:47 | 40.67587 | -74.17911 | 21 ft | 9 kts | 28° |
| 2026-04-26 14:48 | 40.67607 | -74.17899 | 20 ft | 0 kts | 25° |
| 2026-04-26 14:48 | 40.67614 | -74.17895 | 20 ft | 7 kts | 25° |
| 2026-04-26 14:48 | 40.67852 | -74.17743 | 20 ft | 73 kts | 26° |
| 2026-04-26 14:49 | 40.68487 | -74.17334 | 23 ft | 127 kts | 26° |
| 2026-04-26 14:49 | 40.69366 | -74.16748 | 297 ft | 147 kts | 28° |
| 2026-04-26 14:49 | 40.70272 | -74.16030 | 704 ft | 164 kts | 43° |
| 2026-04-26 14:49 | 40.71157 | -74.14913 | 1114 ft | 189 kts | 44° |
| 2026-04-26 14:50 | 40.72174 | -74.13642 | 1628 ft | 213 kts | 43° |
| 2026-04-26 14:50 | 40.73310 | -74.12231 | 2247 ft | 233 kts | 44° |
| 2026-04-26 14:50 | 40.74533 | -74.10797 | 3277 ft | 238 kts | 36° |
| 2026-04-26 14:50 | 40.76092 | -74.09991 | 4267 ft | 248 kts | 9° |
| 2026-04-26 14:51 | 40.77822 | -74.10309 | 5243 ft | 260 kts | 339° |
| 2026-04-26 14:51 | 40.79247 | -74.11818 | 6211 ft | 273 kts | 307° |
| 2026-04-26 14:51 | 40.79928 | -74.14202 | 7126 ft | 283 kts | 282° |
| 2026-04-26 14:51 | 40.80257 | -74.16790 | 7729 ft | 287 kts | 282° |
| 2026-04-26 14:52 | 40.80567 | -74.19396 | 8161 ft | 287 kts | 282° |
| 2026-04-26 14:52 | 40.80873 | -74.21999 | 9140 ft | 288 kts | 282° |
| 2026-04-26 14:52 | 40.81183 | -74.24597 | 10108 ft | 292 kts | 283° |
| 2026-04-26 14:52 | 40.81519 | -74.27349 | 10505 ft | 316 kts | 283° |
| 2026-04-26 14:53 | 40.81881 | -74.30289 | 11028 ft | 331 kts | 283° |
| 2026-04-26 14:53 | 40.82253 | -74.33313 | 11842 ft | 335 kts | 283° |
| 2026-04-26 14:53 | 40.82625 | -74.36361 | 12721 ft | 338 kts | 283° |
| 2026-04-26 14:53 | 40.83000 | -74.39446 | 13564 ft | 341 kts | 283° |
| 2026-04-26 14:54 | 40.83374 | -74.42531 | 14375 ft | 342 kts | 283° |
| 2026-04-26 14:54 | 40.83751 | -74.45645 | 15166 ft | 343 kts | 283° |
| 2026-04-26 14:54 | 40.84129 | -74.48764 | 15970 ft | 344 kts | 283° |
| 2026-04-26 14:54 | 40.84507 | -74.51891 | 16760 ft | 344 kts | 283° |
| 2026-04-26 14:55 | 40.84883 | -74.55019 | 17530 ft | 346 kts | 283° |
| 2026-04-26 14:55 | 40.85259 | -74.58159 | 18301 ft | 347 kts | 283° |
| 2026-04-26 14:55 | 40.85636 | -74.61307 | 18970 ft | 348 kts | 283° |
| 2026-04-26 14:55 | 40.86016 | -74.64479 | 19588 ft | 351 kts | 283° |
| 2026-04-26 14:56 | 40.86399 | -74.67684 | 20191 ft | 354 kts | 283° |
| 2026-04-26 14:56 | 40.86785 | -74.70901 | 20781 ft | 357 kts | 284° |
| 2026-04-26 14:56 | 40.87177 | -74.74156 | 21356 ft | 360 kts | 283° |
| 2026-04-26 14:56 | 40.87570 | -74.77444 | 21922 ft | 363 kts | 283° |
| 2026-04-26 14:57 | 40.87961 | -74.80754 | 22492 ft | 366 kts | 283° |
| 2026-04-26 14:57 | 40.88354 | -74.84091 | 23056 ft | 370 kts | 283° |
| 2026-04-26 14:57 | 40.88750 | -74.87466 | 23611 ft | 373 kts | 283° |
| 2026-04-26 14:57 | 40.89148 | -74.90863 | 24093 ft | 376 kts | 283° |
| 2026-04-26 14:58 | 40.89554 | -74.94297 | 24556 ft | 378 kts | 283° |
| 2026-04-26 14:58 | 40.89961 | -74.97745 | 25013 ft | 381 kts | 283° |
| 2026-04-26 14:58 | 40.90369 | -75.01222 | 25458 ft | 383 kts | 282° |
| 2026-04-26 14:58 | 40.90769 | -75.04670 | 25890 ft | 385 kts | 282° |
| 2026-04-26 14:59 | 40.91176 | -75.08184 | 26300 ft | 388 kts | 282° |
| 2026-04-26 14:59 | 40.91584 | -75.11727 | 26708 ft | 390 kts | 282° |
| 2026-04-26 14:59 | 40.91844 | -75.15322 | 27100 ft | 396 kts | 274° |
| 2026-04-26 14:59 | 40.91754 | -75.17735 | 27354 ft | 400 kts | 267° |
| 2026-04-26 15:00 | 40.90908 | -75.22593 | 27882 ft | 409 kts | 257° |
| 2026-04-26 15:00 | 40.90056 | -75.26180 | 28282 ft | 411 kts | 257° |
| 2026-04-26 15:00 | 40.89204 | -75.29799 | 28693 ft | 412 kts | 257° |
| 2026-04-26 15:00 | 40.88353 | -75.33434 | 29088 ft | 414 kts | 257° |
| 2026-04-26 15:01 | 40.87499 | -75.37077 | 29478 ft | 416 kts | 256° |
| 2026-04-26 15:01 | 40.86654 | -75.40685 | 29847 ft | 418 kts | 256° |
| 2026-04-26 15:01 | 40.85791 | -75.44365 | 30203 ft | 420 kts | 256° |
| 2026-04-26 15:01 | 40.84921 | -75.48055 | 30491 ft | 422 kts | 256° |
| 2026-04-26 15:02 | 40.84042 | -75.51769 | 30795 ft | 424 kts | 256° |
| 2026-04-26 15:02 | 40.83159 | -75.55491 | 31118 ft | 425 kts | 255° |
| 2026-04-26 15:02 | 40.82275 | -75.59211 | 31442 ft | 426 kts | 255° |
| 2026-04-26 15:02 | 40.81382 | -75.62959 | 31759 ft | 427 kts | 255° |
| 2026-04-26 15:03 | 40.80491 | -75.66699 | 32096 ft | 427 kts | 255° |
| 2026-04-26 15:03 | 40.79602 | -75.70419 | 32535 ft | 424 kts | 254° |
| 2026-04-26 15:03 | 40.78716 | -75.74114 | 32994 ft | 421 kts | 254° |
| 2026-04-26 15:03 | 40.77831 | -75.77791 | 33466 ft | 418 kts | 254° |
| 2026-04-26 15:04 | 40.76954 | -75.81438 | 33875 ft | 417 kts | 254° |
| 2026-04-26 15:04 | 40.76077 | -75.85090 | 34266 ft | 416 kts | 254° |
| 2026-04-26 15:04 | 40.75215 | -75.88675 | 34619 ft | 415 kts | 253° |
| 2026-04-26 15:04 | 40.74343 | -75.92302 | 34965 ft | 415 kts | 253° |
| 2026-04-26 15:05 | 40.73470 | -75.95926 | 35286 ft | 414 kts | 253° |
| 2026-04-26 15:05 | 40.72881 | -75.98371 | 35509 ft | 414 kts | 253° |
| 2026-04-26 15:05 | 40.71724 | -76.03160 | 35905 ft | 413 kts | 253° |
| 2026-04-26 15:05 | 40.70849 | -76.06763 | 36114 ft | 414 kts | 253° |
| 2026-04-26 15:06 | 40.69972 | -76.10363 | 36184 ft | 410 kts | 253° |
| 2026-04-26 15:06 | 40.68231 | -76.17501 | 36183 ft | 409 kts | 253° |
| 2026-04-26 15:07 | 40.67340 | -76.28547 | 36191 ft | 408 kts | 278° |
| 2026-04-26 15:07 | 40.68436 | -76.35893 | 36188 ft | 409 kts | 280° |
| 2026-04-26 15:08 | 40.69529 | -76.43195 | 36190 ft | 409 kts | 280° |
| 2026-04-26 15:08 | 40.70614 | -76.50556 | 36181 ft | 409 kts | 280° |
| 2026-04-26 15:09 | 40.71702 | -76.57929 | 36183 ft | 410 kts | 280° |
| 2026-04-26 15:09 | 40.72792 | -76.65325 | 36175 ft | 411 kts | 280° |
| 2026-04-26 15:10 | 40.73694 | -76.71476 | 36181 ft | 411 kts | 280° |
| 2026-04-26 15:10 | 40.74946 | -76.80093 | 36191 ft | 411 kts | 280° |
| 2026-04-26 15:11 | 40.76019 | -76.87504 | 36191 ft | 412 kts | 281° |
| 2026-04-26 15:11 | 40.77096 | -76.94938 | 36187 ft | 412 kts | 281° |
| 2026-04-26 15:12 | 40.78168 | -77.02392 | 36189 ft | 413 kts | 281° |
| 2026-04-26 15:12 | 40.79233 | -77.09848 | 36189 ft | 413 kts | 281° |
| 2026-04-26 15:13 | 40.80298 | -77.17310 | 36202 ft | 414 kts | 281° |
| 2026-04-26 15:13 | 40.81363 | -77.24784 | 36194 ft | 414 kts | 281° |
| 2026-04-26 15:14 | 40.82415 | -77.32221 | 36189 ft | 415 kts | 281° |
| 2026-04-26 15:14 | 40.83461 | -77.39763 | 36194 ft | 415 kts | 281° |
| 2026-04-26 15:15 | 40.84507 | -77.47271 | 36195 ft | 416 kts | 281° |
| 2026-04-26 15:15 | 40.85547 | -77.54731 | 36199 ft | 416 kts | 281° |
| 2026-04-26 15:16 | 40.86593 | -77.62246 | 36198 ft | 416 kts | 281° |
| 2026-04-26 15:16 | 40.87623 | -77.69790 | 36199 ft | 416 kts | 281° |
| 2026-04-26 15:17 | 40.88477 | -77.76045 | 36197 ft | 417 kts | 281° |
| 2026-04-26 15:17 | 40.89684 | -77.84854 | 36221 ft | 417 kts | 281° |
| 2026-04-26 15:18 | 40.90703 | -77.92402 | 36223 ft | 417 kts | 281° |
| 2026-04-26 15:18 | 40.91709 | -77.99905 | 36213 ft | 417 kts | 281° |
| 2026-04-26 15:19 | 40.92679 | -78.07478 | 36210 ft | 418 kts | 280° |
| 2026-04-26 15:19 | 40.93601 | -78.15064 | 36213 ft | 418 kts | 280° |
| 2026-04-26 15:20 | 40.94522 | -78.22652 | 36217 ft | 418 kts | 280° |
| 2026-04-26 15:20 | 40.95451 | -78.30237 | 36219 ft | 418 kts | 280° |
| 2026-04-26 15:21 | 40.96377 | -78.37834 | 36223 ft | 418 kts | 280° |
| 2026-04-26 15:21 | 40.97296 | -78.45440 | 36224 ft | 418 kts | 280° |
| 2026-04-26 15:22 | 40.98207 | -78.53029 | 36222 ft | 418 kts | 280° |
| 2026-04-26 15:22 | 40.99113 | -78.60585 | 36222 ft | 418 kts | 280° |
| 2026-04-26 15:23 | 41.00018 | -78.68184 | 36220 ft | 418 kts | 280° |
| 2026-04-26 15:23 | 41.00916 | -78.75793 | 36200 ft | 418 kts | 280° |
| 2026-04-26 15:24 | 41.01809 | -78.83407 | 36202 ft | 418 kts | 280° |
| 2026-04-26 15:24 | 41.02699 | -78.91022 | 36214 ft | 418 kts | 280° |
| 2026-04-26 15:25 | 41.03433 | -78.97351 | 36214 ft | 418 kts | 280° |
| 2026-04-26 15:25 | 41.04313 | -79.04968 | 36210 ft | 418 kts | 280° |
| 2026-04-26 15:26 | 41.05186 | -79.12582 | 36203 ft | 418 kts | 280° |
| 2026-04-26 15:26 | 41.06060 | -79.20221 | 36203 ft | 419 kts | 280° |
| 2026-04-26 15:27 | 41.06932 | -79.27843 | 36203 ft | 419 kts | 280° |
| 2026-04-26 15:27 | 41.07796 | -79.35478 | 36209 ft | 419 kts | 280° |
| 2026-04-26 15:28 | 41.08648 | -79.43104 | 36206 ft | 419 kts | 280° |
| 2026-04-26 15:28 | 41.09493 | -79.50743 | 36209 ft | 419 kts | 280° |
| 2026-04-26 15:29 | 41.10339 | -79.58346 | 36214 ft | 419 kts | 280° |
| 2026-04-26 15:30 | 41.12018 | -79.73638 | 36215 ft | 419 kts | 280° |
| 2026-04-26 15:30 | 41.12844 | -79.81288 | 36210 ft | 419 kts | 280° |
| 2026-04-26 15:31 | 41.14076 | -79.92762 | 36214 ft | 419 kts | 280° |
| 2026-04-26 15:32 | 41.15179 | -80.02957 | 36210 ft | 419 kts | 280° |
| 2026-04-26 15:32 | 41.16112 | -80.11852 | 36209 ft | 419 kts | 280° |
| 2026-04-26 15:33 | 41.16911 | -80.19505 | 36200 ft | 419 kts | 280° |
| 2026-04-26 15:33 | 41.17718 | -80.27168 | 36207 ft | 418 kts | 280° |
| 2026-04-26 15:34 | 41.18519 | -80.34812 | 36208 ft | 418 kts | 279° |
| 2026-04-26 15:34 | 41.19308 | -80.42466 | 36209 ft | 418 kts | 279° |
| 2026-04-26 15:35 | 41.20093 | -80.50129 | 36209 ft | 418 kts | 279° |
| 2026-04-26 15:35 | 41.20867 | -80.57772 | 36212 ft | 418 kts | 279° |
| 2026-04-26 15:36 | 41.21633 | -80.65357 | 36212 ft | 417 kts | 279° |
| 2026-04-26 15:36 | 41.22402 | -80.73011 | 36213 ft | 417 kts | 279° |
| 2026-04-26 15:37 | 41.23164 | -80.80643 | 36213 ft | 417 kts | 279° |
| 2026-04-26 15:37 | 41.23921 | -80.88279 | 36218 ft | 416 kts | 279° |
| 2026-04-26 15:38 | 41.24676 | -80.95910 | 36203 ft | 416 kts | 279° |
| 2026-04-26 15:38 | 41.25420 | -81.03528 | 36208 ft | 416 kts | 279° |
| 2026-04-26 15:39 | 41.26156 | -81.11140 | 36209 ft | 415 kts | 279° |
| 2026-04-26 15:39 | 41.26765 | -81.17479 | 36207 ft | 415 kts | 279° |
| 2026-04-26 15:40 | 41.27617 | -81.26381 | 36206 ft | 415 kts | 279° |
| 2026-04-26 15:40 | 41.28335 | -81.33953 | 36200 ft | 415 kts | 279° |
| 2026-04-26 15:41 | 41.29056 | -81.41569 | 36204 ft | 415 kts | 279° |
| 2026-04-26 15:41 | 41.29769 | -81.49177 | 36212 ft | 415 kts | 279° |
| 2026-04-26 15:42 | 41.30470 | -81.56803 | 36205 ft | 415 kts | 279° |
| 2026-04-26 15:42 | 41.31169 | -81.64414 | 36205 ft | 414 kts | 279° |
| 2026-04-26 15:43 | 41.31869 | -81.72036 | 36198 ft | 415 kts | 278° |
| 2026-04-26 15:44 | 41.32909 | -81.83460 | 36196 ft | 414 kts | 278° |
| 2026-04-26 15:44 | 41.33935 | -81.94883 | 36200 ft | 414 kts | 278° |
| 2026-04-26 15:45 | 41.34938 | -82.06270 | 36217 ft | 415 kts | 278° |
| 2026-04-26 15:46 | 41.36819 | -82.17407 | 36219 ft | 411 kts | 297° |
| 2026-04-26 15:46 | 41.39361 | -82.22719 | 36222 ft | 410 kts | 306° |
| 2026-04-26 15:47 | 41.44951 | -82.33031 | 36224 ft | 411 kts | 306° |
| 2026-04-26 15:48 | 41.48263 | -82.39179 | 36229 ft | 411 kts | 306° |
| 2026-04-26 15:48 | 41.51602 | -82.45381 | 36223 ft | 411 kts | 306° |
| 2026-04-26 15:49 | 41.54939 | -82.51585 | 36232 ft | 411 kts | 306° |
| 2026-04-26 15:49 | 41.58276 | -82.57788 | 36237 ft | 411 kts | 306° |
| 2026-04-26 15:50 | 41.61608 | -82.63989 | 36238 ft | 410 kts | 306° |
| 2026-04-26 15:50 | 41.64924 | -82.70185 | 36236 ft | 410 kts | 306° |
| 2026-04-26 15:51 | 41.68248 | -82.76416 | 36237 ft | 410 kts | 306° |
| 2026-04-26 15:51 | 41.71562 | -82.82629 | 36230 ft | 410 kts | 306° |
| 2026-04-26 15:52 | 41.74865 | -82.88843 | 36239 ft | 410 kts | 305° |
| 2026-04-26 15:52 | 41.78161 | -82.95067 | 36256 ft | 409 kts | 305° |
| 2026-04-26 15:53 | 41.81431 | -83.01248 | 36256 ft | 408 kts | 305° |
| 2026-04-26 15:53 | 41.84719 | -83.07461 | 36256 ft | 408 kts | 305° |
| 2026-04-26 15:54 | 41.88009 | -83.13693 | 36252 ft | 408 kts | 305° |
| 2026-04-26 15:54 | 41.91285 | -83.19920 | 36242 ft | 408 kts | 305° |
| 2026-04-26 15:55 | 41.94553 | -83.26141 | 36247 ft | 408 kts | 305° |
| 2026-04-26 15:55 | 41.97820 | -83.32380 | 36245 ft | 407 kts | 305° |
| 2026-04-26 15:56 | 42.01076 | -83.38612 | 36257 ft | 407 kts | 305° |
| 2026-04-26 15:56 | 42.04327 | -83.44792 | 36249 ft | 407 kts | 308° |
| 2026-04-26 15:57 | 42.08272 | -83.50262 | 36244 ft | 407 kts | 315° |
| 2026-04-26 15:57 | 42.12357 | -83.55557 | 36231 ft | 408 kts | 315° |
| 2026-04-26 15:58 | 42.16440 | -83.60861 | 36240 ft | 407 kts | 315° |
| 2026-04-26 15:58 | 42.20522 | -83.66177 | 36238 ft | 407 kts | 315° |
| 2026-04-26 15:59 | 42.24582 | -83.71494 | 36248 ft | 407 kts | 315° |
| 2026-04-26 15:59 | 42.28647 | -83.76809 | 36247 ft | 407 kts | 315° |
| 2026-04-26 16:00 | 42.32710 | -83.82125 | 36242 ft | 407 kts | 315° |
| 2026-04-26 16:00 | 42.36766 | -83.87455 | 36239 ft | 406 kts | 315° |
| 2026-04-26 16:01 | 42.40818 | -83.92791 | 36236 ft | 406 kts | 314° |
| 2026-04-26 16:01 | 42.44861 | -83.98138 | 36241 ft | 406 kts | 314° |
| 2026-04-26 16:02 | 42.48904 | -84.03488 | 36250 ft | 406 kts | 314° |
| 2026-04-26 16:02 | 42.52951 | -84.08833 | 36246 ft | 406 kts | 314° |
| 2026-04-26 16:03 | 42.56984 | -84.14178 | 36244 ft | 406 kts | 314° |
| 2026-04-26 16:03 | 42.61019 | -84.19545 | 36243 ft | 406 kts | 314° |
| 2026-04-26 16:04 | 42.65049 | -84.24914 | 36244 ft | 406 kts | 314° |
| 2026-04-26 16:04 | 42.69073 | -84.30281 | 36235 ft | 405 kts | 314° |
| 2026-04-26 16:05 | 42.73075 | -84.35623 | 36241 ft | 405 kts | 314° |
| 2026-04-26 16:05 | 42.77091 | -84.41002 | 36237 ft | 405 kts | 314° |
| 2026-04-26 16:06 | 42.81103 | -84.46388 | 36236 ft | 405 kts | 314° |
| 2026-04-26 16:06 | 42.85116 | -84.51780 | 36234 ft | 405 kts | 314° |
| 2026-04-26 16:07 | 42.89121 | -84.57170 | 36253 ft | 405 kts | 314° |
| 2026-04-26 16:07 | 42.93121 | -84.62576 | 36257 ft | 405 kts | 314° |
| 2026-04-26 16:08 | 42.97118 | -84.67991 | 36245 ft | 404 kts | 314° |
| 2026-04-26 16:08 | 43.01114 | -84.73403 | 36249 ft | 403 kts | 314° |
| 2026-04-26 16:09 | 43.04422 | -84.77889 | 36248 ft | 403 kts | 314° |
| 2026-04-26 16:09 | 43.09038 | -84.84170 | 36249 ft | 403 kts | 314° |
| 2026-04-26 16:10 | 43.12576 | -84.90034 | 36256 ft | 400 kts | 298° |
| 2026-04-26 16:10 | 43.14177 | -84.96003 | 36252 ft | 400 kts | 282° |
| 2026-04-26 16:11 | 43.14560 | -85.03581 | 36244 ft | 402 kts | 274° |
| 2026-04-26 16:11 | 43.14767 | -85.11231 | 36242 ft | 402 kts | 274° |
| 2026-04-26 16:12 | 43.14971 | -85.18873 | 36239 ft | 401 kts | 274° |
| 2026-04-26 16:12 | 43.15254 | -85.30320 | 36233 ft | 400 kts | 274° |
| 2026-04-26 16:13 | 43.15441 | -85.37900 | 36211 ft | 399 kts | 274° |
| 2026-04-26 16:13 | 43.15533 | -85.41693 | 35709 ft | 398 kts | 274° |
| 2026-04-26 16:13 | 43.15623 | -85.45488 | 35150 ft | 398 kts | 274° |
| 2026-04-26 16:14 | 43.15713 | -85.49278 | 34630 ft | 398 kts | 274° |
| 2026-04-26 16:14 | 43.15801 | -85.53064 | 34121 ft | 398 kts | 274° |
| 2026-04-26 16:14 | 43.15975 | -85.60685 | 32971 ft | 402 kts | 273° |
| 2026-04-26 16:15 | 43.16060 | -85.64532 | 32415 ft | 405 kts | 273° |
| 2026-04-26 16:15 | 43.16143 | -85.68400 | 31872 ft | 408 kts | 273° |
| 2026-04-26 16:15 | 43.16223 | -85.72293 | 31337 ft | 410 kts | 273° |
| 2026-04-26 16:16 | 43.16385 | -85.80172 | 30291 ft | 416 kts | 272° |
| 2026-04-26 16:16 | 43.16465 | -85.84143 | 29700 ft | 418 kts | 272° |
| 2026-04-26 16:16 | 43.16544 | -85.88136 | 29111 ft | 420 kts | 272° |
| 2026-04-26 16:16 | 43.16622 | -85.92149 | 28533 ft | 422 kts | 272° |
| 2026-04-26 16:17 | 43.16698 | -85.96157 | 27971 ft | 423 kts | 271° |
| 2026-04-26 16:17 | 43.16773 | -86.00213 | 27417 ft | 424 kts | 271° |
| 2026-04-26 16:17 | 43.16845 | -86.04208 | 26881 ft | 426 kts | 271° |
| 2026-04-26 16:17 | 43.16883 | -86.08273 | 26349 ft | 427 kts | 270° |
| 2026-04-26 16:18 | 43.16853 | -86.12341 | 25829 ft | 428 kts | 269° |
| 2026-04-26 16:18 | 43.16691 | -86.20532 | 24813 ft | 430 kts | 267° |
| 2026-04-26 16:19 | 43.16522 | -86.28750 | 23813 ft | 434 kts | 268° |
| 2026-04-26 16:19 | 43.16451 | -86.32893 | 23246 ft | 436 kts | 268° |
| 2026-04-26 16:19 | 43.16325 | -86.41239 | 22156 ft | 440 kts | 268° |
| 2026-04-26 16:20 | 43.16263 | -86.45441 | 21631 ft | 442 kts | 267° |
| 2026-04-26 16:20 | 43.16127 | -86.53886 | 20628 ft | 443 kts | 267° |
| 2026-04-26 16:20 | 43.16052 | -86.58099 | 20143 ft | 442 kts | 266° |
| 2026-04-26 16:21 | 43.15974 | -86.62301 | 19654 ft | 439 kts | 266° |
| 2026-04-26 16:21 | 43.15898 | -86.66422 | 19174 ft | 424 kts | 266° |
| 2026-04-26 16:21 | 43.15827 | -86.70389 | 18706 ft | 410 kts | 266° |
| 2026-04-26 16:21 | 43.15756 | -86.74247 | 18204 ft | 400 kts | 266° |
| 2026-04-26 16:22 | 43.15684 | -86.78019 | 17670 ft | 392 kts | 266° |
| 2026-04-26 16:22 | 43.15608 | -86.81725 | 17151 ft | 387 kts | 266° |
| 2026-04-26 16:22 | 43.15531 | -86.85336 | 16641 ft | 381 kts | 266° |
| 2026-04-26 16:22 | 43.15453 | -86.88946 | 16134 ft | 376 kts | 266° |
| 2026-04-26 16:23 | 43.15378 | -86.92495 | 15624 ft | 370 kts | 266° |
| 2026-04-26 16:23 | 43.15302 | -86.95990 | 15154 ft | 365 kts | 266° |
| 2026-04-26 16:23 | 43.15227 | -86.99452 | 14665 ft | 363 kts | 266° |
| 2026-04-26 16:23 | 43.15154 | -87.02896 | 14189 ft | 361 kts | 266° |
| 2026-04-26 16:24 | 43.15081 | -87.06340 | 13678 ft | 360 kts | 266° |
| 2026-04-26 16:24 | 43.15008 | -87.09756 | 13122 ft | 357 kts | 266° |
| 2026-04-26 16:24 | 43.14933 | -87.13138 | 12524 ft | 355 kts | 266° |
| 2026-04-26 16:24 | 43.14857 | -87.16513 | 11928 ft | 353 kts | 266° |
| 2026-04-26 16:25 | 43.14779 | -87.19856 | 11341 ft | 351 kts | 266° |
| 2026-04-26 16:25 | 43.14698 | -87.23190 | 10775 ft | 349 kts | 266° |
| 2026-04-26 16:25 | 43.14615 | -87.26505 | 10239 ft | 347 kts | 266° |
| 2026-04-26 16:25 | 43.14534 | -87.29802 | 10031 ft | 348 kts | 266° |
| 2026-04-26 16:26 | 43.14451 | -87.33121 | 10021 ft | 349 kts | 266° |
| 2026-04-26 16:26 | 43.14394 | -87.35321 | 10024 ft | 350 kts | 266° |
| 2026-04-26 16:26 | 43.14162 | -87.39766 | 10024 ft | 349 kts | 262° |
| 2026-04-26 16:26 | 43.13896 | -87.43073 | 10018 ft | 349 kts | 261° |
| 2026-04-26 16:27 | 43.13596 | -87.46336 | 10025 ft | 349 kts | 261° |
| 2026-04-26 16:27 | 43.13275 | -87.49674 | 10016 ft | 349 kts | 261° |
| 2026-04-26 16:27 | 43.12966 | -87.52930 | 10024 ft | 349 kts | 261° |
| 2026-04-26 16:27 | 43.12663 | -87.56225 | 10027 ft | 349 kts | 261° |
| 2026-04-26 16:28 | 43.12367 | -87.59523 | 10023 ft | 349 kts | 261° |
| 2026-04-26 16:28 | 43.12075 | -87.62823 | 10023 ft | 349 kts | 261° |
| 2026-04-26 16:28 | 43.11784 | -87.66120 | 10013 ft | 349 kts | 261° |
| 2026-04-26 16:28 | 43.11495 | -87.69423 | 10014 ft | 349 kts | 261° |
| 2026-04-26 16:29 | 43.11206 | -87.72725 | 10005 ft | 348 kts | 261° |
| 2026-04-26 16:29 | 43.10925 | -87.75942 | 9882 ft | 333 kts | 261° |
| 2026-04-26 16:29 | 43.10647 | -87.79097 | 9300 ft | 334 kts | 261° |
| 2026-04-26 16:29 | 43.10366 | -87.82246 | 8749 ft | 334 kts | 261° |
| 2026-04-26 16:30 | 43.10083 | -87.85407 | 8190 ft | 334 kts | 261° |
| 2026-04-26 16:30 | 43.09794 | -87.88553 | 7646 ft | 333 kts | 258° |
| 2026-04-26 16:30 | 43.09104 | -87.91533 | 7256 ft | 324 kts | 242° |
| 2026-04-26 16:30 | 43.08169 | -87.94270 | 7135 ft | 311 kts | 243° |
| 2026-04-26 16:31 | 43.07287 | -87.96911 | 7011 ft | 299 kts | 243° |
| 2026-04-26 16:31 | 43.06450 | -87.99440 | 6888 ft | 284 kts | 243° |
| 2026-04-26 16:31 | 43.05655 | -88.01834 | 6773 ft | 270 kts | 242° |
| 2026-04-26 16:31 | 43.04894 | -88.04110 | 6643 ft | 257 kts | 242° |
| 2026-04-26 16:32 | 43.04158 | -88.06304 | 6376 ft | 252 kts | 242° |
| 2026-04-26 16:32 | 43.03677 | -88.07730 | 6233 ft | 246 kts | 242° |
| 2026-04-26 16:32 | 43.02732 | -88.10533 | 6066 ft | 241 kts | 242° |
| 2026-04-26 16:32 | 43.02032 | -88.12600 | 5992 ft | 239 kts | 241° |
| 2026-04-26 16:33 | 43.01340 | -88.14641 | 6001 ft | 240 kts | 242° |
| 2026-04-26 16:33 | 43.00637 | -88.16719 | 6004 ft | 240 kts | 241° |
| 2026-04-26 16:33 | 42.99936 | -88.18788 | 5989 ft | 240 kts | 241° |
| 2026-04-26 16:33 | 42.99233 | -88.20845 | 5681 ft | 238 kts | 239° |
| 2026-04-26 16:34 | 42.98242 | -88.22589 | 5312 ft | 231 kts | 217° |
| 2026-04-26 16:34 | 42.97014 | -88.24015 | 4937 ft | 231 kts | 216° |
| 2026-04-26 16:34 | 42.95784 | -88.25433 | 4546 ft | 231 kts | 216° |
| 2026-04-26 16:34 | 42.94577 | -88.26821 | 4394 ft | 221 kts | 216° |
| 2026-04-26 16:35 | 42.93437 | -88.28135 | 4294 ft | 207 kts | 216° |
| 2026-04-26 16:35 | 42.92374 | -88.29358 | 4162 ft | 193 kts | 216° |
| 2026-04-26 16:35 | 42.91377 | -88.30505 | 4033 ft | 182 kts | 215° |
| 2026-04-26 16:35 | 42.90432 | -88.31589 | 3882 ft | 173 kts | 215° |
| 2026-04-26 16:36 | 42.89520 | -88.32634 | 3636 ft | 170 kts | 215° |
| 2026-04-26 16:36 | 42.88597 | -88.33635 | 3281 ft | 168 kts | 205° |
| 2026-04-26 16:36 | 42.87535 | -88.34121 | 2960 ft | 160 kts | 178° |
| 2026-04-26 16:36 | 42.86493 | -88.33803 | 2890 ft | 154 kts | 147° |
| 2026-04-26 16:37 | 42.85775 | -88.32779 | 2833 ft | 151 kts | 115° |
| 2026-04-26 16:37 | 42.85550 | -88.31387 | 2766 ft | 152 kts | 99° |
| 2026-04-26 16:37 | 42.85388 | -88.29955 | 2701 ft | 153 kts | 100° |
| 2026-04-26 16:37 | 42.85212 | -88.28533 | 2686 ft | 153 kts | 99° |
| 2026-04-26 16:38 | 42.85322 | -88.27103 | 2692 ft | 154 kts | 75° |
| 2026-04-26 16:38 | 42.85620 | -88.25704 | 2706 ft | 150 kts | 77° |
| 2026-04-26 16:38 | 42.85918 | -88.24380 | 2687 ft | 143 kts | 75° |
| 2026-04-26 16:38 | 42.86219 | -88.23110 | 2687 ft | 139 kts | 75° |
| 2026-04-26 16:39 | 42.86523 | -88.21859 | 2687 ft | 141 kts | 73° |
| 2026-04-26 16:39 | 42.86833 | -88.20591 | 2689 ft | 144 kts | 75° |
| 2026-04-26 16:39 | 42.87151 | -88.19296 | 2682 ft | 144 kts | 74° |
| 2026-04-26 16:39 | 42.87472 | -88.17992 | 2688 ft | 146 kts | 75° |
| 2026-04-26 16:40 | 42.87794 | -88.16691 | 2696 ft | 143 kts | 75° |
| 2026-04-26 16:40 | 42.88112 | -88.15398 | 2691 ft | 145 kts | 74° |
| 2026-04-26 16:40 | 42.88435 | -88.14087 | 2696 ft | 146 kts | 75° |
| 2026-04-26 16:40 | 42.88759 | -88.12773 | 2693 ft | 146 kts | 74° |
| 2026-04-26 16:41 | 42.89084 | -88.11452 | 2717 ft | 146 kts | 75° |
| 2026-04-26 16:41 | 42.89407 | -88.10141 | 2709 ft | 146 kts | 75° |
| 2026-04-26 16:41 | 42.89731 | -88.08824 | 2699 ft | 147 kts | 73° |
| 2026-04-26 16:41 | 42.90055 | -88.07507 | 2703 ft | 144 kts | 73° |
| 2026-04-26 16:42 | 42.90373 | -88.06212 | 2706 ft | 143 kts | 74° |
| 2026-04-26 16:42 | 42.90693 | -88.04909 | 2680 ft | 147 kts | 73° |
| 2026-04-26 16:42 | 42.91018 | -88.03586 | 2559 ft | 146 kts | 74° |
| 2026-04-26 16:42 | 42.91335 | -88.02294 | 2402 ft | 145 kts | 75° |
| 2026-04-26 16:43 | 42.91650 | -88.01008 | 2221 ft | 140 kts | 75° |
| 2026-04-26 16:43 | 42.91957 | -87.99756 | 2236 ft | 139 kts | 74° |
| 2026-04-26 16:43 | 42.92264 | -87.98502 | 2489 ft | 140 kts | 74° |
| 2026-04-26 16:43 | 42.92580 | -87.97211 | 2351 ft | 142 kts | 74° |
| 2026-04-26 16:44 | 42.92890 | -87.95922 | 1909 ft | 143 kts | 77° |
| 2026-04-26 16:44 | 42.93190 | -87.94666 | 1546 ft | 139 kts | 73° |
| 2026-04-26 16:44 | 42.93496 | -87.93421 | 1207 ft | 138 kts | 74° |
| 2026-04-26 16:44 | 42.93809 | -87.92178 | 837 ft | 138 kts | 71° |
| 2026-04-26 16:45 | 42.94108 | -87.90967 | 695 ft | 125 kts | 75° |
| 2026-04-26 16:45 | 42.94343 | -87.89989 | 682 ft | 75 kts | 71° |
| 2026-04-26 16:45 | 42.94432 | -87.89732 | 680 ft | 20 kts | 47° |
| 2026-04-26 16:45 | 42.94558 | -87.89658 | 681 ft | 12 kts | 7° |
| 2026-04-26 16:46 | 42.94651 | -87.89642 | 681 ft | 12 kts | 6° |
| 2026-04-26 16:46 | 42.94695 | -87.89635 | 680 ft | 9 kts | 6° |
| 2026-04-26 16:46 | 42.94773 | -87.89623 | 677 ft | 11 kts | 7° |
| 2026-04-26 16:46 | 42.94862 | -87.89606 | 674 ft | 13 kts | 7° |
| 2026-04-26 16:47 | 42.94938 | -87.89597 | 674 ft | 10 kts | 351° |
| 2026-04-26 16:47 | 42.94973 | -87.89674 | 675 ft | 12 kts | 270° |
| 2026-04-26 16:47 | 42.94973 | -87.89699 | 674 ft | 0 kts | 269° |
| 2026-04-26 16:48 | 42.94973 | -87.89725 | 674 ft | 5 kts | 270° |
| 2026-04-26 16:48 | 42.94985 | -87.89780 | 673 ft | 7 kts | 317° |
| 2026-04-26 16:48 | 42.95042 | -87.89819 | 673 ft | 11 kts | 334° |
| 2026-04-26 16:49 | 42.95104 | -87.89893 | 675 ft | 12 kts | 312° |
| 2026-04-26 16:49 | 42.95161 | -87.89981 | 677 ft | 8 kts | 312° |
| 2026-04-26 16:49 | 42.95201 | -87.90041 | 676 ft | 8 kts | 311° |
| 2026-04-26 16:49 | 42.95199 | -87.90118 | 676 ft | 9 kts | 237° |
| 2026-04-26 16:50 | 42.95156 | -87.90170 | 675 ft | 8 kts | 220° |
| 2026-04-26 16:50 | 42.95119 | -87.90212 | 679 ft | 2 kts | 212° |
| 2026-04-26 16:50 | 42.95114 | -87.90210 | 677 ft | 0 kts | 181° |
| 2026-04-26 16:50 | 42.95113 | -87.90210 | 677 ft | 0 kts | 174° |
| 2026-04-26 16:51 | 42.95110 | -87.90208 | 678 ft | 1 kts | 162° |
| 2026-04-26 16:51 | 42.95104 | -87.90200 | 679 ft | 2 kts | 138° |
| 2026-04-26 16:51 | 42.95093 | -87.90174 | 679 ft | 5 kts | 119° |
| 2026-04-26 16:51 | 42.95077 | -87.90137 | 680 ft | 0 kts | 120° |
| 2026-04-26 16:55 | 42.95077 | -87.90136 | 680 ft | 0 kts | 120° |